Hlavní strana
METAR-TAF:

METAR-TAF

Letiště :

London-Corbin Airport (Magee Field)

London, Kentucky, Spojené státy americké

zeměpisná šířka: 37-05-22N, zeměpisná délka: 084-04-07W, výška: 369 m

Aktuální stav počasí

Zpráva byla vytvořena před 50 minutami, v 10:53 UTC
Bezvětří
Teplota -4°C
Vlhkost vzduchu 80%
Tlak 1027 hPa
Viditelnost: 16.1 km
Skoro jasno ve výšce 6000 ft

METAR: KLOZ 071053Z AUTO 00000KT 10SM FEW060 M04/M07 A3033 RMK AO2 SLP278 T10441067

Čas: 06:43 (11:43 UTC)

Předpověď počasí

Zpráva byla vytvořena před 9 minutami, v 11:34 UTC
Předpověď platná od 07 v 12 UTC do 08 v 12 UTC
vítr z různých směrů 3 kt
Viditelnost: 10 km
Skoro jasno ve výšce 6000 ft
Od 07 v 1500 UTC
Severozápadní vítr 7 kt
Viditelnost: 10 km
Jasno
Od 08 v 0000 UTC
vítr z různých směrů 3 kt
Viditelnost: 10 km
Jasno

TAF: KLOZ 071134Z 0712/0812 VRB03KT P6SM FEW060 FM071500 32007KT P6SM SKC FM080000 VRB03KT P6SM SKC

Stav a předpovědi počasí z více než 4 000 letišť (zprávy METAR a TAF).

Červené a žluté tečky na mapě představují dostupné meteorologické stanice.

Když kurzor umístíte na tečku, zobrazí se název stanice.

Pak kliknutím zobrazíte stav a předpověď počasí.

Chcete-li změnit mapu, kliknutím na zelené tlačítko se znaménkem +mapu přiblížíte, kliknutím na zelené tlačítko se znaménkem – mapu oddálíte a kliknutím na zelené šipky přejdete na sousední mapy.


METAR-TAF: